createdAt,value
2022-10-14T00:01:02.123Z,63.56
2022-10-14T00:02:06.412Z,63.57
2022-10-14T00:03:10.588Z,63.49
2022-10-14T00:04:14.684Z,63.43
2022-10-14T00:05:18.787Z,63.49
2022-10-14T00:06:22.874Z,63.66
2022-10-14T00:07:26.953Z,63.74
2022-10-14T00:08:31.063Z,63.63
2022-10-14T00:09:35.128Z,63.57
2022-10-14T00:10:39.228Z,63.62
2022-10-14T00:11:43.330Z,63.52
2022-10-14T00:12:47.440Z,63.49
2022-10-14T00:13:51.534Z,63.49
2022-10-14T00:14:55.639Z,63.34
2022-10-14T00:15:59.722Z,63.43
2022-10-14T00:17:03.816Z,63.44
2022-10-14T00:18:07.877Z,63.38
2022-10-14T00:19:11.955Z,63.29
2022-10-14T00:20:16.025Z,63.22
2022-10-14T00:21:20.106Z,63.44
2022-10-14T00:22:24.225Z,63.3
2022-10-14T00:23:28.302Z,63.2
2022-10-14T00:24:32.388Z,63.25
2022-10-14T00:25:36.441Z,63.15
2022-10-14T00:26:40.546Z,63.23
2022-10-14T00:27:44.675Z,63.14
2022-10-14T00:28:48.989Z,63.11
2022-10-14T00:29:53.118Z,63.11
2022-10-14T00:30:57.217Z,63.04
2022-10-14T00:32:01.352Z,63.03
2022-10-14T00:33:05.459Z,63.04
2022-10-14T00:34:09.518Z,63.01
2022-10-14T00:35:13.567Z,63.02
2022-10-14T00:36:17.652Z,63
2022-10-14T00:37:22.920Z,62.97
2022-10-14T00:38:27.305Z,63.02
2022-10-14T00:39:31.406Z,62.91
2022-10-14T00:40:35.476Z,62.97
2022-10-14T00:41:39.560Z,62.76
2022-10-14T00:42:43.666Z,62.91
2022-10-14T00:43:47.779Z,62.83
2022-10-14T00:44:51.825Z,62.92
2022-10-14T00:45:55.920Z,62.91
2022-10-14T00:47:00.027Z,62.8
2022-10-14T00:48:04.097Z,62.85
2022-10-14T00:49:08.159Z,62.8
2022-10-14T00:50:12.235Z,62.77
2022-10-14T00:51:16.301Z,62.81
2022-10-14T00:52:20.395Z,62.74
2022-10-14T00:53:24.485Z,62.75
2022-10-14T00:54:28.587Z,62.75
2022-10-14T00:55:32.656Z,62.7
2022-10-14T00:56:36.741Z,62.69
2022-10-14T00:57:40.825Z,62.69
2022-10-14T00:58:44.920Z,62.68
2022-10-14T00:59:49.051Z,62.61
2022-10-14T01:00:53.363Z,62.62
2022-10-14T01:01:57.436Z,62.59
2022-10-14T01:03:01.531Z,62.58
2022-10-14T01:04:05.587Z,62.61
2022-10-14T01:05:09.840Z,62.64
2022-10-14T01:06:13.938Z,62.62
2022-10-14T01:07:18.149Z,62.58
2022-10-14T01:08:22.299Z,62.56
2022-10-14T01:09:26.412Z,62.55
2022-10-14T01:10:30.518Z,62.53
2022-10-14T01:11:34.617Z,62.51
2022-10-14T01:12:38.751Z,62.51
2022-10-14T01:13:42.802Z,62.5
2022-10-14T01:14:46.865Z,62.5
2022-10-14T01:15:51.054Z,62.54
2022-10-14T01:16:55.131Z,62.55
2022-10-14T01:17:59.226Z,62.57
2022-10-14T01:19:03.316Z,62.6
2022-10-14T01:20:07.393Z,62.48
2022-10-14T01:21:11.488Z,62.56
2022-10-14T01:22:22.235Z,62.57
2022-10-14T01:23:26.502Z,62.56
2022-10-14T01:24:30.560Z,62.55
2022-10-14T01:25:34.635Z,62.47
2022-10-14T01:26:38.809Z,62.47
2022-10-14T01:27:42.919Z,62.45
2022-10-14T01:28:47.306Z,62.48
2022-10-14T01:29:51.411Z,62.47
2022-10-14T01:30:55.514Z,62.46
2022-10-14T01:31:59.601Z,62.45
2022-10-14T01:33:03.650Z,62.4
2022-10-14T01:34:07.756Z,62.44
2022-10-14T01:35:11.823Z,62.44
2022-10-14T01:36:15.918Z,62.43
2022-10-14T01:37:20.056Z,62.41
2022-10-14T01:38:24.110Z,62.35
2022-10-14T01:39:28.195Z,62.44
2022-10-14T01:40:32.259Z,62.41
2022-10-14T01:41:36.351Z,62.36
2022-10-14T01:42:40.450Z,62.29
2022-10-14T01:43:44.580Z,62.35
2022-10-14T01:44:48.677Z,62.39
2022-10-14T01:45:52.759Z,62.33
2022-10-14T01:46:56.817Z,62.38
2022-10-14T01:48:00.920Z,62.34
2022-10-14T01:49:04.999Z,62.33
2022-10-14T01:50:09.070Z,62.37
2022-10-14T01:51:13.153Z,62.32
2022-10-14T01:52:17.215Z,62.33
2022-10-14T01:53:21.302Z,62.34
2022-10-14T01:54:25.380Z,62.29
2022-10-14T01:55:29.461Z,62.3
2022-10-14T01:56:40.281Z,62.48
2022-10-14T01:57:44.679Z,62.39
2022-10-14T01:58:48.757Z,62.32
2022-10-14T01:59:52.854Z,62.27
2022-10-14T02:00:56.947Z,62.22
2022-10-14T02:02:01.367Z,62.2
2022-10-14T02:03:05.475Z,62.2
2022-10-14T02:04:09.574Z,62.22
2022-10-14T02:05:13.692Z,62.18
2022-10-14T02:06:17.779Z,62.23
2022-10-14T02:07:21.869Z,62.25
2022-10-14T02:08:26.102Z,62.25
2022-10-14T02:09:30.188Z,62.22
2022-10-14T02:10:34.252Z,62.21
2022-10-14T02:11:38.300Z,62.16
2022-10-14T02:12:42.396Z,62.17
2022-10-14T02:13:46.454Z,62.33
2022-10-14T02:14:50.585Z,62.13
2022-10-14T02:15:54.671Z,62.12
2022-10-14T02:16:58.770Z,62.08
2022-10-14T02:18:02.881Z,61.98
2022-10-14T02:19:06.964Z,62.09
2022-10-14T02:20:11.044Z,61.98
2022-10-14T02:21:15.118Z,62.08
2022-10-14T02:22:19.674Z,61.99
2022-10-14T02:23:23.958Z,62.01
2022-10-14T02:24:28.079Z,62.15
2022-10-14T02:25:32.166Z,62.04
2022-10-14T02:26:36.249Z,61.96
2022-10-14T02:27:40.361Z,61.94
2022-10-14T02:28:44.674Z,62.11
2022-10-14T02:29:48.799Z,61.93
2022-10-14T02:30:52.867Z,61.85
2022-10-14T02:31:56.960Z,61.94
2022-10-14T02:33:01.030Z,61.99
2022-10-14T02:34:05.098Z,62.23
2022-10-14T02:35:09.192Z,62
2022-10-14T02:36:13.279Z,61.92
2022-10-14T02:37:17.376Z,61.72
2022-10-14T02:38:21.478Z,61.45
2022-10-14T02:39:25.559Z,61.3
2022-10-14T02:40:29.672Z,61.25
2022-10-14T02:41:33.776Z,61.13
2022-10-14T02:42:37.851Z,61.04
2022-10-14T02:43:41.987Z,60.87
2022-10-14T02:44:46.092Z,60.81
2022-10-14T02:45:50.227Z,60.74
2022-10-14T02:46:54.309Z,60.53
2022-10-14T02:47:58.405Z,60.35
2022-10-14T02:49:02.470Z,60.2
2022-10-14T02:50:06.557Z,60.06
2022-10-14T02:51:10.676Z,59.87
2022-10-14T02:52:14.751Z,59.59
2022-10-14T02:53:18.829Z,59.42
2022-10-14T02:54:22.933Z,59.3
2022-10-14T02:55:27.026Z,59.1
2022-10-14T02:56:31.123Z,59.07
2022-10-14T02:57:35.229Z,59.01
2022-10-14T02:58:39.333Z,59.02
2022-10-14T02:59:43.429Z,59.05
2022-10-14T03:00:47.544Z,59.14
2022-10-14T03:01:51.795Z,59.2
2022-10-14T03:02:55.889Z,59.31
2022-10-14T03:03:59.960Z,59.42
2022-10-14T03:05:04.037Z,59.5
2022-10-14T03:06:08.135Z,59.44
2022-10-14T03:07:12.238Z,59.49
2022-10-14T03:08:16.341Z,59.6
2022-10-14T03:09:20.411Z,59.6
2022-10-14T03:10:24.513Z,59.52
2022-10-14T03:11:28.590Z,59.29
2022-10-14T03:12:32.686Z,59.04
2022-10-14T03:13:36.781Z,58.9
2022-10-14T03:14:40.872Z,58.75
2022-10-14T03:15:44.980Z,58.64
2022-10-14T03:16:49.114Z,58.57
2022-10-14T03:17:53.219Z,58.55
2022-10-14T03:18:57.306Z,58.57
2022-10-14T03:20:01.421Z,58.65
2022-10-14T03:21:05.508Z,58.66
2022-10-14T03:22:09.913Z,58.8
2022-10-14T03:23:13.992Z,58.87
2022-10-14T03:24:18.101Z,58.97
2022-10-14T03:25:22.203Z,58.97
2022-10-14T03:26:26.321Z,59.08
2022-10-14T03:27:30.396Z,59.13
2022-10-14T03:28:34.682Z,59.21
2022-10-14T03:29:38.887Z,59.31
2022-10-14T03:30:42.974Z,59.33
2022-10-14T03:31:47.128Z,59.35
2022-10-14T03:32:51.244Z,59.25
2022-10-14T03:33:55.431Z,59.37
2022-10-14T03:34:59.555Z,59.37
2022-10-14T03:36:03.634Z,59.22
2022-10-14T03:37:07.708Z,59.12
2022-10-14T03:38:11.796Z,59.21
2022-10-14T03:39:15.902Z,59.22
2022-10-14T03:40:19.975Z,59.17
2022-10-14T03:41:24.055Z,59.27
2022-10-14T03:42:28.131Z,59.31
2022-10-14T03:43:32.221Z,59.4
2022-10-14T03:44:36.303Z,59.45
2022-10-14T03:45:40.407Z,59.48
2022-10-14T03:46:44.510Z,59.58
2022-10-14T03:47:48.618Z,59.66
2022-10-14T03:48:52.690Z,59.73
2022-10-14T03:49:56.814Z,59.77
2022-10-14T03:51:00.917Z,59.88
2022-10-14T03:52:05.016Z,59.96
2022-10-14T03:53:09.075Z,59.98
2022-10-14T03:54:13.170Z,59.99
2022-10-14T03:55:17.270Z,60.04
2022-10-14T03:56:21.333Z,60.21
2022-10-14T03:57:25.436Z,60.16
2022-10-14T03:58:29.539Z,60.21
2022-10-14T03:59:33.660Z,60.17
2022-10-14T04:00:37.771Z,60.18
2022-10-14T04:01:42.052Z,60.21
2022-10-14T04:02:46.183Z,60.26
2022-10-14T04:03:50.287Z,60.24
2022-10-14T04:05:02.034Z,60.31
2022-10-14T04:06:06.179Z,60.3
2022-10-14T04:07:10.377Z,60.44
2022-10-14T04:08:14.463Z,60.45
2022-10-14T04:09:18.555Z,60.45
2022-10-14T04:10:22.629Z,60.53
2022-10-14T04:11:26.736Z,60.59
2022-10-14T04:12:30.810Z,60.59
2022-10-14T04:13:34.880Z,60.6
2022-10-14T04:14:38.982Z,60.67
2022-10-14T04:15:43.079Z,60.51
2022-10-14T04:16:51.667Z,60.48
2022-10-14T04:17:55.774Z,60.56
2022-10-14T04:18:59.861Z,60.63
2022-10-14T04:20:03.950Z,60.64
2022-10-14T04:21:08.042Z,60.64
2022-10-14T04:22:12.182Z,60.67
2022-10-14T04:23:16.304Z,60.62
2022-10-14T04:24:20.404Z,60.38
2022-10-14T04:25:24.494Z,60.31
2022-10-14T04:26:28.551Z,60.48
2022-10-14T04:27:32.629Z,60.33
2022-10-14T04:28:36.938Z,60.28
2022-10-14T04:29:41.121Z,59.87
2022-10-14T04:30:45.205Z,59.6
2022-10-14T04:31:49.323Z,59.67
2022-10-14T04:32:53.422Z,59.5
2022-10-14T04:33:57.494Z,60.1
2022-10-14T04:35:01.559Z,60.39
2022-10-14T04:36:05.670Z,60.79
2022-10-14T04:37:09.811Z,60.57
2022-10-14T04:38:13.934Z,60.4
2022-10-14T04:39:18.038Z,60.57
2022-10-14T04:40:22.126Z,60.82
2022-10-14T04:41:26.192Z,60.98
2022-10-14T04:42:30.294Z,61.11
2022-10-14T04:43:34.741Z,61
2022-10-14T04:44:38.794Z,61.08
2022-10-14T04:45:42.873Z,60.81
2022-10-14T04:46:46.963Z,60.98
2022-10-14T04:47:51.057Z,61
2022-10-14T04:48:55.146Z,60.91
2022-10-14T04:49:59.483Z,60.31
2022-10-14T04:51:15.282Z,60.5
2022-10-14T04:52:20.070Z,60.38
2022-10-14T04:53:24.504Z,60.76
2022-10-14T04:54:28.605Z,60.99
2022-10-14T04:55:32.680Z,60.88
2022-10-14T04:56:36.717Z,60.89
2022-10-14T04:57:40.809Z,60.5
2022-10-14T04:58:44.911Z,60.31
2022-10-14T04:59:49.024Z,60.17
2022-10-14T05:00:53.097Z,60.42
2022-10-14T05:01:57.440Z,60.58
2022-10-14T05:03:01.592Z,60.59
2022-10-14T05:04:05.640Z,60.66
2022-10-14T05:05:09.745Z,60.83
2022-10-14T05:06:13.836Z,60.46
2022-10-14T05:07:17.885Z,60.29
2022-10-14T05:08:21.959Z,60.72
2022-10-14T05:09:26.187Z,60.56
2022-10-14T05:10:30.299Z,60.57
2022-10-14T05:11:34.414Z,60.91
2022-10-14T05:12:38.532Z,60.9
2022-10-14T05:13:42.598Z,60.83
2022-10-14T05:14:46.738Z,60.73
2022-10-14T05:15:50.838Z,60.35
2022-10-14T05:16:54.906Z,60.63
2022-10-14T05:17:58.967Z,60.87
2022-10-14T05:19:03.055Z,61.08
2022-10-14T05:20:07.150Z,60.37
2022-10-14T05:21:11.259Z,60.27
2022-10-14T05:22:15.328Z,60.46
2022-10-14T05:23:19.406Z,60.43
2022-10-14T05:24:23.495Z,60.35
2022-10-14T05:25:27.606Z,60.35
2022-10-14T05:26:31.733Z,60.37
2022-10-14T05:27:35.820Z,60.19
2022-10-14T05:28:40.100Z,60.47
2022-10-14T05:29:44.208Z,60.98
2022-10-14T05:30:48.279Z,60.88
2022-10-14T05:31:52.394Z,60.53
2022-10-14T05:32:56.488Z,60.22
2022-10-14T05:34:00.547Z,60.63
2022-10-14T05:35:04.618Z,60.78
2022-10-14T05:36:08.711Z,60.99
2022-10-14T05:37:12.810Z,61.39
2022-10-14T05:38:16.905Z,61.51
2022-10-14T05:39:21.006Z,61.88
2022-10-14T05:40:25.071Z,62.02
2022-10-14T05:41:29.134Z,62.06
2022-10-14T05:42:33.220Z,61.96
2022-10-14T05:43:37.343Z,62.17
2022-10-14T05:44:41.428Z,62.21
2022-10-14T05:45:45.492Z,62.38
2022-10-14T05:46:49.568Z,62.38
2022-10-14T05:47:53.644Z,62.33
2022-10-14T05:48:57.732Z,62.24
2022-10-14T05:50:01.839Z,61.87
2022-10-14T05:51:05.954Z,62.17
2022-10-14T05:52:10.065Z,62.08
2022-10-14T05:53:14.279Z,62.11
2022-10-14T05:54:18.395Z,62.37
2022-10-14T05:55:22.551Z,62.36
2022-10-14T05:56:26.729Z,62.29
2022-10-14T05:57:30.868Z,62.27
2022-10-14T05:58:34.982Z,62.32
2022-10-14T05:59:39.088Z,62.26
2022-10-14T06:00:43.172Z,62.24
2022-10-14T06:01:47.271Z,62.31
2022-10-14T06:02:51.556Z,62
2022-10-14T06:03:55.738Z,61.93
2022-10-14T06:04:59.880Z,61.71
2022-10-14T06:06:03.989Z,61.79
2022-10-14T06:07:08.070Z,62.09
2022-10-14T06:08:12.150Z,62.12
2022-10-14T06:09:16.275Z,62.21
2022-10-14T06:10:20.369Z,62.24
2022-10-14T06:11:24.461Z,62.17
2022-10-14T06:12:28.555Z,62.07
2022-10-14T06:13:32.676Z,62.21
2022-10-14T06:14:36.768Z,62.26
2022-10-14T06:15:40.852Z,62.31
2022-10-14T06:16:44.960Z,62.08
2022-10-14T06:17:49.055Z,61.93
2022-10-14T06:18:56.560Z,61.56
2022-10-14T06:20:00.645Z,61.86
2022-10-14T06:21:04.738Z,62.08
2022-10-14T06:22:08.838Z,62.36
2022-10-14T06:23:12.943Z,62.4
2022-10-14T06:24:17.034Z,62.38
2022-10-14T06:25:21.256Z,62.52
2022-10-14T06:26:25.351Z,62.5
2022-10-14T06:27:29.426Z,62.36
2022-10-14T06:28:33.717Z,62.55
2022-10-14T06:29:37.837Z,62.57
2022-10-14T06:30:41.971Z,62.66
2022-10-14T06:31:46.163Z,62.55
2022-10-14T06:32:50.248Z,62.49
2022-10-14T06:33:54.403Z,62.52
2022-10-14T06:34:58.671Z,62.52
2022-10-14T06:36:02.806Z,62.54
2022-10-14T06:37:06.936Z,62.55
2022-10-14T06:38:11.010Z,62.57
2022-10-14T06:39:15.103Z,62.59
2022-10-14T06:40:19.302Z,62.68
2022-10-14T06:41:23.476Z,62.49
2022-10-14T06:42:28.569Z,62.46
2022-10-14T06:43:32.693Z,62.54
2022-10-14T06:44:36.783Z,62.65
2022-10-14T06:45:40.895Z,62.7
2022-10-14T06:46:45.008Z,62.71
2022-10-14T06:47:49.088Z,62.66
2022-10-14T06:48:53.177Z,62.67
2022-10-14T06:49:57.293Z,62.75
2022-10-14T06:51:01.419Z,62.65
2022-10-14T06:52:05.589Z,62.76
2022-10-14T06:53:09.690Z,62.84
2022-10-14T06:54:13.749Z,62.98
2022-10-14T06:55:17.843Z,62.93
2022-10-14T06:56:21.941Z,62.84
2022-10-14T06:57:26.060Z,62.82
2022-10-14T06:58:30.200Z,62.79
2022-10-14T06:59:34.293Z,62.74
2022-10-14T07:00:38.609Z,62.73
2022-10-14T07:01:42.964Z,62.8
2022-10-14T07:02:47.130Z,62.81
2022-10-14T07:03:57.840Z,62.84
2022-10-14T07:05:01.946Z,62.82
2022-10-14T07:06:06.037Z,62.84
2022-10-14T07:07:10.097Z,62.73
2022-10-14T07:08:17.438Z,62.81
2022-10-14T07:09:21.633Z,62.98
2022-10-14T07:10:25.806Z,62.85
2022-10-14T07:11:29.886Z,62.94
2022-10-14T07:12:33.955Z,62.93
2022-10-14T07:13:38.058Z,62.96
2022-10-14T07:14:42.142Z,62.86
2022-10-14T07:15:46.230Z,62.79
2022-10-14T07:16:50.302Z,62.89
2022-10-14T07:17:54.382Z,62.81
2022-10-14T07:18:58.506Z,62.8
2022-10-14T07:20:02.578Z,63.16
2022-10-14T07:21:06.692Z,63.28
2022-10-14T07:22:10.817Z,63.24
2022-10-14T07:23:14.911Z,63.14
2022-10-14T07:24:19.022Z,63.04
2022-10-14T07:25:23.079Z,63.06
2022-10-14T07:26:27.177Z,63
2022-10-14T07:27:31.274Z,63.05
2022-10-14T07:28:35.604Z,63.01
2022-10-14T07:29:39.719Z,63
2022-10-14T07:30:43.777Z,63.11
2022-10-14T07:31:47.861Z,63.07
2022-10-14T07:32:51.973Z,63.17
2022-10-14T07:33:56.073Z,63.18
2022-10-14T07:35:00.227Z,63.15
2022-10-14T07:36:04.320Z,63.14
2022-10-14T07:37:08.417Z,63.09
2022-10-14T07:38:12.491Z,63.2
2022-10-14T07:39:17.639Z,63.25
2022-10-14T07:40:21.762Z,63.15
2022-10-14T07:41:25.840Z,63.16
2022-10-14T07:42:32.547Z,63.24
2022-10-14T07:43:36.689Z,63.18
2022-10-14T07:44:40.836Z,63.17
2022-10-14T07:45:44.989Z,63.16
2022-10-14T07:46:49.120Z,63.21
2022-10-14T07:47:53.226Z,63.16
2022-10-14T07:48:59.755Z,63.27
2022-10-14T07:50:03.888Z,63.31
2022-10-14T07:51:08.003Z,63.22
2022-10-14T07:52:12.113Z,63.25
2022-10-14T07:53:16.214Z,63.18
2022-10-14T07:54:20.315Z,63.15
2022-10-14T07:55:24.476Z,63.22
2022-10-14T07:56:28.579Z,63.19
2022-10-14T07:57:32.707Z,63.25
2022-10-14T07:58:38.942Z,63.2
2022-10-14T07:59:50.904Z,63.18
2022-10-14T08:00:55.412Z,63.33
2022-10-14T08:01:59.762Z,63.41
2022-10-14T08:03:04.096Z,63.23
2022-10-14T08:04:11.331Z,63.34
2022-10-14T08:05:40.167Z,63.39
2022-10-14T08:06:44.297Z,63.53
2022-10-14T08:07:48.454Z,62.8
2022-10-14T08:08:52.583Z,62.68
2022-10-14T08:09:58.191Z,62.49
2022-10-14T08:11:02.363Z,62.06
2022-10-14T08:12:06.633Z,62.06
2022-10-14T08:13:10.951Z,61.35
2022-10-14T08:14:15.204Z,61.41
2022-10-14T08:15:19.585Z,61.61
2022-10-14T08:16:23.861Z,61.75
2022-10-14T08:17:28.067Z,61.89
2022-10-14T08:18:32.330Z,61.94
2022-10-14T08:19:39.408Z,61.94
2022-10-14T08:20:43.555Z,61.98
2022-10-14T08:21:49.986Z,62
2022-10-14T08:22:54.286Z,61.97
2022-10-14T08:23:58.500Z,62.06
2022-10-14T08:25:02.607Z,62.08
2022-10-14T08:26:06.873Z,62.13
2022-10-14T08:27:11.042Z,62.17
2022-10-14T08:28:15.434Z,62.15
2022-10-14T08:29:20.754Z,62.17
2022-10-14T08:30:24.955Z,62.1
2022-10-14T08:31:29.251Z,62.13
2022-10-14T08:32:33.579Z,62.32
2022-10-14T08:33:37.895Z,62.5
2022-10-14T08:34:42.201Z,62.44
2022-10-14T08:35:53.935Z,62.47
2022-10-14T08:36:58.331Z,62.49
2022-10-14T08:38:02.528Z,62.45
2022-10-14T08:39:07.441Z,62.39
2022-10-14T08:40:11.666Z,62.37
2022-10-14T08:41:18.359Z,62.32
2022-10-14T08:42:23.818Z,62.48
2022-10-14T08:43:28.162Z,62.45
2022-10-14T08:44:32.290Z,62.44
2022-10-14T08:45:36.436Z,62.53
2022-10-14T08:46:40.593Z,62.48
2022-10-14T08:47:44.736Z,62.53
2022-10-14T08:48:48.877Z,62.46
2022-10-14T08:49:52.993Z,62.53
2022-10-14T08:50:57.260Z,62.48
2022-10-14T08:52:01.533Z,62.59
2022-10-14T08:53:05.824Z,62.58
2022-10-14T08:54:10.004Z,62.54
2022-10-14T08:55:14.236Z,62.51
2022-10-14T08:56:18.359Z,62.58
2022-10-14T08:57:22.618Z,62.6
2022-10-14T08:58:27.939Z,62.69
2022-10-14T08:59:32.102Z,62.77
2022-10-14T09:00:36.315Z,62.76
2022-10-14T09:01:40.491Z,62.79
2022-10-14T09:02:44.653Z,62.79
2022-10-14T09:03:49.001Z,62.8
2022-10-14T09:04:53.264Z,62.82
2022-10-14T09:05:57.478Z,62.88
2022-10-14T09:07:02.723Z,62.78
2022-10-14T09:08:07.200Z,62.81
2022-10-14T09:09:11.475Z,62.91
2022-10-14T09:10:15.925Z,62.87
2022-10-14T09:11:23.099Z,62.85
2022-10-14T09:12:27.417Z,62.85
2022-10-14T09:13:31.540Z,62.81
2022-10-14T09:14:35.696Z,60.2
2022-10-14T09:15:39.880Z,58.48
2022-10-14T09:16:44.115Z,57.16
2022-10-14T09:17:48.364Z,57.4
2022-10-14T09:18:56.570Z,57.25
2022-10-14T09:20:00.847Z,56.99
2022-10-14T09:21:04.955Z,56.66
2022-10-14T09:22:09.085Z,56.77
2022-10-14T09:23:13.189Z,55.98
2022-10-14T09:24:17.341Z,55.25
2022-10-14T09:25:21.464Z,55.04
2022-10-14T09:26:25.605Z,55.48
2022-10-14T09:27:30.233Z,55.37
2022-10-14T09:28:34.620Z,55.02
2022-10-14T09:29:38.825Z,55.66
2022-10-14T09:30:43.005Z,55.5
2022-10-14T09:31:47.159Z,55.06
2022-10-14T09:32:51.319Z,55.04
2022-10-14T09:33:55.499Z,55.18
2022-10-14T09:35:00.956Z,54.85
2022-10-14T09:36:05.112Z,54.61
2022-10-14T09:37:09.247Z,54.54
2022-10-14T09:38:13.424Z,54.44
2022-10-14T09:39:17.592Z,54.75
2022-10-14T09:40:21.753Z,54.68
2022-10-14T09:41:25.860Z,54.75
2022-10-14T09:42:29.979Z,54.66
2022-10-14T09:43:34.341Z,54.54
2022-10-14T09:44:38.472Z,54.67
2022-10-14T09:45:42.659Z,54.32
2022-10-14T09:46:46.829Z,54.5
2022-10-14T09:47:50.938Z,54.86
2022-10-14T09:48:55.035Z,55.03
2022-10-14T09:49:59.227Z,55.2
2022-10-14T09:51:03.424Z,54.99
2022-10-14T09:52:07.584Z,54.54
2022-10-14T09:53:13.159Z,54.55
2022-10-14T09:54:17.321Z,54.46
2022-10-14T09:55:21.522Z,54.61
2022-10-14T09:56:25.661Z,54.55
2022-10-14T09:57:29.800Z,54.53
2022-10-14T09:58:33.943Z,54.61
2022-10-14T09:59:38.152Z,54.39
2022-10-14T10:00:42.346Z,54.71
2022-10-14T10:01:46.468Z,54.76
2022-10-14T10:02:50.590Z,54.45
2022-10-14T10:03:55.128Z,54.7
2022-10-14T10:04:59.352Z,54.67
2022-10-14T10:06:03.616Z,54.1
2022-10-14T10:07:07.853Z,53.84
2022-10-14T10:08:12.008Z,53.8
2022-10-14T10:09:16.199Z,53.56
2022-10-14T10:10:20.460Z,53.28
2022-10-14T10:11:24.636Z,53.49
2022-10-14T10:12:28.782Z,53.7
2022-10-14T10:13:32.952Z,53.4
2022-10-14T10:14:37.104Z,54.03
2022-10-14T10:15:41.255Z,53.8
2022-10-14T10:16:45.729Z,53.84
2022-10-14T10:17:49.975Z,53.82
2022-10-14T10:18:54.177Z,53.92
2022-10-14T10:19:58.280Z,53.83
2022-10-14T10:21:02.512Z,53.87
2022-10-14T10:22:06.740Z,53.85
2022-10-14T10:23:10.980Z,54.08
2022-10-14T10:24:15.140Z,54.04
2022-10-14T10:25:19.362Z,54.02
2022-10-14T10:26:23.574Z,53.77
2022-10-14T10:27:27.732Z,54.04
2022-10-14T10:28:32.222Z,54.36
2022-10-14T10:29:36.527Z,54.22
2022-10-14T10:30:40.649Z,54.1
2022-10-14T10:31:44.972Z,54.04
2022-10-14T10:32:49.178Z,53.8
2022-10-14T10:33:53.303Z,53.64
2022-10-14T10:34:57.449Z,53.67
2022-10-14T10:36:01.572Z,53.5
2022-10-14T10:37:05.734Z,53.76
2022-10-14T10:38:09.871Z,53.98
2022-10-14T10:39:13.980Z,53.9
2022-10-14T10:40:18.239Z,53.62
2022-10-14T10:41:22.362Z,53.72
2022-10-14T10:42:27.069Z,53.92
2022-10-14T10:43:31.351Z,54.75
2022-10-14T10:44:35.491Z,55.76
2022-10-14T10:45:39.683Z,56.21
2022-10-14T10:46:43.856Z,56.58
2022-10-14T10:47:48.057Z,56.79
2022-10-14T10:48:52.186Z,56.72
2022-10-14T10:51:00.595Z,57.43
2022-10-14T10:52:04.701Z,57.49
2022-10-14T10:53:08.939Z,57.69
2022-10-14T10:54:13.077Z,57.75
2022-10-14T10:55:17.274Z,58.02
2022-10-14T10:56:21.485Z,58.17
2022-10-14T10:57:26.023Z,58.32
2022-10-14T10:58:30.245Z,58.42
2022-10-14T10:59:34.534Z,58.47
2022-10-14T11:00:38.629Z,58.4
2022-10-14T11:01:42.985Z,58.46
2022-10-14T11:02:47.168Z,58.51
2022-10-14T11:03:51.280Z,58.66
2022-10-14T11:04:55.427Z,58.75
2022-10-14T11:05:59.575Z,58.79
2022-10-14T11:07:03.776Z,58.83
2022-10-14T11:08:07.877Z,58.86
2022-10-14T11:09:12.109Z,58.92
2022-10-14T11:10:16.319Z,59
2022-10-14T11:11:20.501Z,59.14
2022-10-14T11:12:25.618Z,59.13
2022-10-14T11:13:34.303Z,59.18
2022-10-14T11:14:38.432Z,59.24
2022-10-14T11:15:42.610Z,59.28
2022-10-14T11:16:46.821Z,59.33
2022-10-14T11:17:51.019Z,59.28
2022-10-14T11:18:55.126Z,59.41
2022-10-14T11:19:59.287Z,59.41
2022-10-14T11:21:03.413Z,59.58
2022-10-14T11:22:07.530Z,59.65
2022-10-14T11:23:11.676Z,59.62
2022-10-14T11:25:20.042Z,59.73
2022-10-14T11:26:24.547Z,59.72
2022-10-14T11:27:29.777Z,59.81
2022-10-14T11:28:34.174Z,59.8
2022-10-14T11:29:39.403Z,59.9
2022-10-14T11:30:43.554Z,60
2022-10-14T11:31:47.692Z,59.96
2022-10-14T11:32:51.899Z,60.1
2022-10-14T11:33:56.164Z,60.13
2022-10-14T11:35:00.331Z,60.14
2022-10-14T11:36:04.544Z,60.09
2022-10-14T11:37:08.668Z,60.08
2022-10-14T11:38:13.103Z,60.16
2022-10-14T11:39:17.332Z,60.18
2022-10-14T11:40:21.458Z,60.26
2022-10-14T11:41:25.609Z,60.21
2022-10-14T11:42:30.034Z,60.22
2022-10-14T11:43:34.144Z,60.22
2022-10-14T11:44:38.305Z,60.26
2022-10-14T11:45:42.600Z,60.26
2022-10-14T11:46:46.760Z,60.33
2022-10-14T11:47:50.968Z,60.5
2022-10-14T11:48:55.096Z,60.45
2022-10-14T11:49:59.202Z,60.47
2022-10-14T11:51:03.391Z,60.53
2022-10-14T11:52:07.776Z,60.58
2022-10-14T11:53:12.082Z,60.62
2022-10-14T11:54:16.212Z,60.62
2022-10-14T11:55:20.303Z,60.33
2022-10-14T11:56:24.619Z,60.65
2022-10-14T11:57:28.891Z,60.63
2022-10-14T11:58:33.048Z,60.64
2022-10-14T11:59:37.197Z,60.8
2022-10-14T12:00:41.397Z,60.85
2022-10-14T12:01:45.541Z,60.86
2022-10-14T12:02:50.139Z,60.56
2022-10-14T12:03:54.325Z,60.76
2022-10-14T12:04:58.414Z,60.71
2022-10-14T12:06:02.736Z,60.84
2022-10-14T12:07:07.001Z,60.83
2022-10-14T12:08:11.168Z,60.78
2022-10-14T12:09:15.413Z,60.87
2022-10-14T12:10:19.501Z,60.93
2022-10-14T12:11:23.644Z,60.94
2022-10-14T12:12:27.810Z,60.95
2022-10-14T12:13:32.006Z,61.06
2022-10-14T12:14:36.319Z,61.08
2022-10-14T12:15:40.675Z,61.07
2022-10-14T12:16:44.838Z,61.09
2022-10-14T12:17:49.012Z,61.11
2022-10-14T12:18:53.133Z,61.14
2022-10-14T12:19:57.237Z,61.23
2022-10-14T12:21:01.301Z,61.2
2022-10-14T12:22:05.481Z,61.24
2022-10-14T12:23:09.842Z,61.22
2022-10-14T12:24:13.979Z,61.23
2022-10-14T12:25:18.114Z,61.1
2022-10-14T12:26:22.273Z,61.08
2022-10-14T12:27:26.683Z,61.09
2022-10-14T12:28:31.033Z,61.03
2022-10-14T12:29:35.234Z,61.04
2022-10-14T12:30:39.476Z,61.08
2022-10-14T12:31:43.690Z,61.1
2022-10-14T12:32:47.879Z,61.14
2022-10-14T12:33:52.011Z,61.1
2022-10-14T12:34:56.143Z,61.13
2022-10-14T12:36:00.495Z,61.08
2022-10-14T12:37:04.692Z,61.08
2022-10-14T12:38:11.870Z,61.1
2022-10-14T12:39:16.025Z,61.05
2022-10-14T12:40:22.432Z,61.15
2022-10-14T12:41:33.155Z,61.14
2022-10-14T12:42:37.322Z,61.08
2022-10-14T12:43:41.424Z,61.12
2022-10-14T12:44:46.965Z,61.03
2022-10-14T12:45:51.207Z,61.12
2022-10-14T12:46:55.361Z,61.12
2022-10-14T12:48:02.384Z,61.05
2022-10-14T12:49:06.669Z,61.06
2022-10-14T12:50:10.853Z,61.08
2022-10-14T12:51:14.983Z,61.04
2022-10-14T12:52:19.177Z,61.02
2022-10-14T12:53:23.314Z,61.04
2022-10-14T12:54:27.470Z,60.97
2022-10-14T12:55:31.574Z,61.08
2022-10-14T12:56:35.790Z,61.02
2022-10-14T12:57:44.096Z,61.06
2022-10-14T12:58:48.210Z,61.09
2022-10-14T12:59:52.354Z,61.11
2022-10-14T13:00:56.549Z,61.04
2022-10-14T13:02:00.912Z,61.09
2022-10-14T13:03:05.130Z,61.06
2022-10-14T13:04:12.459Z,61.07
2022-10-14T13:05:17.241Z,61.04
2022-10-14T13:06:21.513Z,61.12
2022-10-14T13:07:43.815Z,61.14
2022-10-14T13:08:48.402Z,61.08
2022-10-14T13:09:52.614Z,61.13
2022-10-14T13:10:56.771Z,61.14
2022-10-14T13:12:01.060Z,61.14
2022-10-14T13:14:09.553Z,61.15
2022-10-14T13:15:13.807Z,61.04
2022-10-14T13:16:17.983Z,61.12
2022-10-14T13:17:22.840Z,61.12
